createdAt,value
2022-11-05T00:00:14.305Z,100
2022-11-05T00:10:15.301Z,100
2022-11-05T00:20:15.653Z,100
2022-11-05T00:30:16.106Z,100
2022-11-05T00:40:16.151Z,100
2022-11-05T00:50:16.719Z,100
2022-11-05T01:00:17.036Z,100
2022-11-05T01:10:18.094Z,100
2022-11-05T01:20:18.238Z,100
2022-11-05T01:30:19.038Z,100
2022-11-05T01:40:19.645Z,100
2022-11-05T01:50:20.379Z,100
2022-11-05T02:00:21.210Z,100
2022-11-05T02:10:21.764Z,100
2022-11-05T02:20:22.026Z,100
2022-11-05T02:30:22.505Z,100
2022-11-05T02:40:22.676Z,100
2022-11-05T02:50:23.113Z,100
2022-11-05T03:00:23.966Z,100
2022-11-05T03:10:24.182Z,100
2022-11-05T03:20:24.647Z,100
2022-11-05T03:30:25.209Z,100
2022-11-05T03:40:25.606Z,100
2022-11-05T03:50:25.755Z,100
2022-11-05T04:00:26.664Z,100
2022-11-05T04:10:27.263Z,100
2022-11-05T04:20:28.109Z,100
2022-11-05T04:30:28.377Z,100
2022-11-05T04:40:28.558Z,100
2022-11-05T04:50:29.016Z,100
2022-11-05T05:00:30.115Z,100
2022-11-05T05:10:30.558Z,100
2022-11-05T05:20:31.223Z,100
2022-11-05T05:30:31.814Z,100
2022-11-05T05:40:32.768Z,100
2022-11-05T05:50:32.939Z,100
2022-11-05T06:00:33.476Z,100
2022-11-05T06:10:33.829Z,100
2022-11-05T06:20:34.649Z,100
2022-11-05T06:30:35.035Z,100
2022-11-05T06:40:35.503Z,100
2022-11-05T06:50:35.991Z,100
2022-11-05T07:00:36.590Z,100
2022-11-05T07:10:37.559Z,100
2022-11-05T07:20:38.161Z,100
2022-11-05T07:30:38.636Z,100
2022-11-05T07:40:39.636Z,100
2022-11-05T07:50:40.602Z,100
2022-11-05T08:00:40.911Z,100
2022-11-05T08:10:41.690Z,100
2022-11-05T08:20:42.199Z,100
2022-11-05T08:30:42.790Z,100
2022-11-05T08:50:43.482Z,100
2022-11-05T09:00:44.481Z,100
2022-11-05T09:10:44.782Z,100
2022-11-05T09:20:45.781Z,99
2022-11-05T09:30:45.926Z,98
2022-11-05T09:40:46.305Z,97
2022-11-05T09:50:46.951Z,96
2022-11-05T10:00:47.922Z,94
2022-11-05T10:10:48.957Z,93
2022-11-05T10:11:10.847Z,93
2022-11-05T10:20:54.597Z,92
2022-11-05T10:30:55.572Z,91
2022-11-05T10:50:56.342Z,87
2022-11-05T11:00:57.265Z,87
2022-11-05T11:10:57.397Z,87
2022-11-05T11:20:57.540Z,86
2022-11-05T11:30:58.469Z,84
2022-11-05T11:40:59.362Z,84
2022-11-05T11:51:00.415Z,84
2022-11-05T12:01:01.079Z,83
2022-11-05T12:11:01.755Z,83
2022-11-05T12:21:02.856Z,83
2022-11-05T12:31:03.242Z,83
2022-11-05T12:41:04.088Z,82
2022-11-05T12:51:05.001Z,84
2022-11-05T13:01:05.461Z,85
2022-11-05T13:11:06.513Z,85
2022-11-05T13:21:07.011Z,83
2022-11-05T13:31:07.692Z,82
2022-11-05T13:41:08.237Z,82
2022-11-05T13:51:08.948Z,81
2022-11-05T14:01:09.467Z,79
2022-11-05T14:31:11.999Z,82
2022-11-05T14:41:13.016Z,82
2022-11-05T14:51:13.187Z,82
2022-11-05T15:01:13.471Z,83
2022-11-05T15:11:13.858Z,84
2022-11-05T15:21:14.879Z,84
2022-11-05T15:31:15.684Z,84
2022-11-05T15:51:16.750Z,85
2022-11-05T16:01:17.606Z,85
2022-11-05T16:11:18.207Z,85
2022-11-05T16:31:19.319Z,86
2022-11-05T16:51:24.803Z,86
2022-11-05T17:01:21.772Z,87
2022-11-05T17:11:22.150Z,87
2022-11-05T17:21:23.184Z,87
2022-11-05T17:41:23.731Z,86
2022-11-05T17:51:24.556Z,86
2022-11-05T18:01:24.775Z,86
2022-11-05T18:11:25.724Z,86
2022-11-05T18:21:26.032Z,86
2022-11-05T18:31:26.926Z,86
2022-11-05T18:41:27.884Z,86
2022-11-05T18:51:28.576Z,86
2022-11-05T19:01:29.186Z,86
2022-11-05T19:11:30.141Z,86
2022-11-05T19:21:31.199Z,86
2022-11-05T19:31:32.214Z,87
2022-11-05T19:41:32.395Z,87
2022-11-05T19:51:33.160Z,88
2022-11-05T20:01:34.130Z,88
2022-11-05T20:11:34.962Z,88
2022-11-05T20:21:35.872Z,89
2022-11-05T20:31:36.452Z,89
2022-11-05T20:41:37.310Z,89
2022-11-05T20:51:37.435Z,90
2022-11-05T21:01:38.411Z,90
2022-11-05T21:11:38.573Z,90
2022-11-05T21:21:41.180Z,90
2022-11-05T21:31:39.951Z,90
2022-11-05T21:41:40.849Z,90
2022-11-05T21:51:41.107Z,90
2022-11-05T22:01:42.128Z,90
2022-11-05T22:21:43.245Z,89
2022-11-05T22:31:44.022Z,90
2022-11-05T22:51:45.647Z,90
2022-11-05T23:01:46.262Z,90
2022-11-05T23:11:46.902Z,90
2022-11-05T23:21:47.496Z,90
2022-11-05T23:31:47.973Z,90
2022-11-05T23:41:48.230Z,90
